Time;durP1;ratioP1;P1;durP2;ratioP2;P2;SDS_P1;SDS_P2;PMS_P1;PMS_P2;Temp;Humidity;BMP_temperature;BMP_pressure;BME280_temperature;BME280_humidity;BME280_pressure;Samples;Min_cycle;Max_cycle;Signal;HPM_P1;HPM_P2
2024/01/23 07:59:59;;;;;;;15.43;2.57;;;;;;;7.44;76.69;101821.47;4754473;29;20741;-63
2024/01/23 08:02:27;;;;;;;18.43;3.37;;;;;;;7.57;76.38;101832.94;4784773;29;20262;-62
2024/01/23 08:04:55;;;;;;;14.40;2.53;;;;;;;7.71;75.92;101826.81;4831025;29;20222;-63
2024/01/23 08:07:24;;;;;;;12.60;3.00;;;;;;;7.80;75.08;101829.72;4831497;29;20310;-62
2024/01/23 08:09:52;;;;;;;19.83;3.17;;;;;;;7.86;74.88;101828.47;4831226;29;20249;-62
2024/01/23 08:12:21;;;;;;;14.70;3.20;;;;;;;7.92;74.74;101834.19;4832029;29;20273;-62
2024/01/23 08:14:49;;;;;;;12.30;2.63;;;;;;;8.01;74.48;101832.75;4830030;29;20226;-64
2024/01/23 08:17:19;;;;;;;15.87;2.80;;;;;;;8.07;74.04;101834.19;4830818;29;20671;-62
2024/01/23 08:19:47;;;;;;;10.13;2.57;;;;;;;8.12;73.78;101843.50;4829785;29;20255;-63
2024/01/23 08:22:16;;;;;;;23.10;3.00;;;;;;;8.14;73.54;101833.69;4831360;29;20214;-64
2024/01/23 08:24:44;;;;;;;12.77;2.87;;;;;;;8.16;73.59;101830.94;4828664;29;20238;-65
2024/01/23 08:27:13;;;;;;;14.07;2.70;;;;;;;8.20;73.40;101824.50;4830237;29;20226;-64
2024/01/23 08:29:41;;;;;;;15.60;3.00;;;;;;;8.25;73.24;101830.34;4828792;29;20262;-65
2024/01/23 08:32:09;;;;;;;14.87;3.03;;;;;;;8.24;73.11;101829.50;4829521;29;20222;-64
2024/01/23 08:34:39;;;;;;;14.13;2.90;;;;;;;8.20;73.17;101837.72;4906158;29;20212;-66
2024/01/23 08:37:07;;;;;;;17.60;3.00;;;;;;;8.17;73.40;101830.00;4908146;29;20232;-65
2024/01/23 08:39:38;;;;;;;14.07;2.70;;;;;;;8.14;73.47;101832.84;4907775;29;20212;-64
2024/01/23 08:42:06;;;;;;;11.53;3.20;;;;;;;8.18;73.59;101834.34;4911642;29;20209;-65
2024/01/23 08:44:35;;;;;;;18.60;3.00;;;;;;;8.24;73.38;101844.50;4911338;29;20272;-64
2024/01/23 08:47:04;;;;;;;12.63;2.97;;;;;;;8.32;73.36;101842.25;4910862;29;20228;-61
2024/01/23 08:49:32;;;;;;;17.07;3.50;;;;;;;8.42;73.01;101853.91;4912284;29;20215;-65
2024/01/23 08:52:02;;;;;;;16.30;2.77;;;;;;;8.51;72.77;101861.25;4910796;29;21059;-63
2024/01/23 08:54:31;;;;;;;13.97;2.70;;;;;;;8.62;72.46;101857.84;4912132;29;20231;-65
2024/01/23 08:56:59;;;;;;;15.27;3.47;;;;;;;8.76;72.03;101854.31;4910289;29;20755;-65
2024/01/23 08:59:28;;;;;;;16.23;4.80;;;;;;;8.95;71.32;101852.13;4912688;29;20814;-65
2024/01/23 09:01:56;;;;;;;17.23;3.50;;;;;;;9.13;70.47;101866.75;4911306;29;20220;-63
2024/01/23 09:04:24;;;;;;;15.33;3.20;;;;;;;9.37;69.49;101864.22;4912430;29;20209;-63
2024/01/23 09:06:53;;;;;;;13.20;2.70;;;;;;;9.56;68.58;101866.41;4913506;29;20260;-66
2024/01/23 09:09:25;;;;;;;9.97;2.33;;;;;;;9.59;67.93;101877.63;4910605;29;20217;-64
2024/01/23 09:11:53;;;;;;;12.30;2.93;;;;;;;9.69;67.79;101880.47;4911556;29;20319;-65
2024/01/23 09:14:21;;;;;;;16.57;2.93;;;;;;;9.87;67.37;101878.31;4911108;29;20244;-64
2024/01/23 09:16:49;;;;;;;14.13;2.20;;;;;;;10.46;65.86;101892.59;4911318;29;20323;-64
2024/01/23 09:19:17;;;;;;;12.10;2.70;;;;;;;11.00;63.29;101881.44;4910783;29;20724;-65
2024/01/23 09:21:45;;;;;;;15.27;2.93;;;;;;;12.49;59.78;101888.22;4910836;29;20218;-63
2024/01/23 09:24:15;;;;;;;18.37;3.10;;;;;;;14.93;53.09;101890.72;4911611;29;20236;-64
2024/01/23 09:26:44;;;;;;;10.20;2.00;;;;;;;17.34;47.39;101896.53;4911968;29;20217;-63
2024/01/23 09:29:12;;;;;;;9.10;2.27;;;;;;;18.88;43.81;101906.03;4912498;29;20733;-62
2024/01/23 09:31:45;;;;;;;9.53;3.03;;;;;;;19.09;41.90;101909.03;4920535;29;20332;-63
2024/01/23 09:34:13;;;;;;;13.23;2.50;;;;;;;19.68;40.88;101912.34;4920811;29;20217;-62
2024/01/23 09:36:42;;;;;;;9.50;2.33;;;;;;;20.77;38.74;101906.91;4921446;29;20211;-64
2024/01/23 09:39:13;;;;;;;9.57;2.63;;;;;;;21.95;36.74;101910.63;4921074;29;20699;-67
2024/01/23 09:41:47;;;;;;;7.50;2.20;;;;;;;22.93;34.99;101920.94;4920287;29;20213;-62
2024/01/23 09:44:15;;;;;;;10.73;2.70;;;;;;;24.49;32.55;101899.59;4925106;29;20211;-62
2024/01/23 09:46:47;;;;;;;7.07;2.33;;;;;;;25.61;30.61;101906.94;4925062;29;20215;-65
2024/01/23 09:49:16;;;;;;;8.85;2.35;;;;;;;25.48;29.84;101899.63;4924699;29;20685;-66
2024/01/23 09:51:47;;;;;;;9.07;2.85;;;;;;;26.10;29.22;101903.66;4924657;29;20237;-65
2024/01/23 09:54:16;;;;;;;10.52;2.67;;;;;;;25.99;29.08;101910.59;4927231;29;20208;-65
2024/01/23 09:56:45;;;;;;;11.27;2.67;;;;;;;25.03;29.86;101904.91;4923350;29;20217;-64
2024/01/23 09:59:14;;;;;;;10.25;2.50;;;;;;;24.80;30.38;101912.59;4922874;29;20228;-65
2024/01/23 10:01:43;;;;;;;8.88;2.88;;;;;;;23.99;31.38;101917.13;4922850;29;20209;-62
2024/01/23 10:04:11;;;;;;;8.82;2.72;;;;;;;23.65;31.60;101906.31;4925733;28;20343;-64
2024/01/23 10:06:40;;;;;;;10.13;2.70;;;;;;;23.91;31.56;101896.44;4923762;29;20517;-66
2024/01/23 10:09:09;;;;;;;11.48;3.65;;;;;;;23.50;31.38;101901.81;4921904;29;20212;-65
2024/01/23 10:11:37;;;;;;;10.05;2.95;;;;;;;21.62;33.84;101901.25;4925176;29;20250;-65
2024/01/23 10:14:07;;;;;;;16.13;3.55;;;;;;;20.13;36.12;101913.53;4920754;29;21217;-63
2024/01/23 10:16:39;;;;;;;11.45;3.03;;;;;;;19.04;37.48;101911.41;4920001;29;20217;-65
2024/01/23 10:19:10;;;;;;;16.27;3.60;;;;;;;18.11;39.07;101912.56;4921518;29;20212;-64
2024/01/23 10:21:39;;;;;;;14.13;3.47;;;;;;;17.15;40.87;101925.22;4923099;29;20204;-64
2024/01/23 10:24:08;;;;;;;16.17;3.77;;;;;;;16.42;41.90;101923.69;4921279;29;20313;-62
2024/01/23 10:26:37;;;;;;;14.63;2.77;;;;;;;15.50;43.57;101922.78;4923154;29;20217;-66
2024/01/23 10:29:08;;;;;;;14.17;3.90;;;;;;;14.90;45.26;101920.38;4921709;29;20368;-63
2024/01/23 10:31:37;;;;;;;17.37;3.80;;;;;;;14.59;46.27;101929.50;4920348;29;20224;-63
2024/01/23 10:34:06;;;;;;;16.20;3.50;;;;;;;14.58;46.19;101930.47;4922653;29;20212;-64
2024/01/23 10:36:34;;;;;;;12.93;3.83;;;;;;;14.77;46.64;101924.31;4920375;29;20239;-63
2024/01/23 10:39:04;;;;;;;19.53;4.07;;;;;;;15.21;46.23;101929.06;4920615;29;20764;-63
2024/01/23 10:41:34;;;;;;;19.07;4.07;;;;;;;15.90;44.78;101928.75;4925664;29;20216;-65
2024/01/23 10:44:03;;;;;;;13.97;3.60;;;;;;;17.16;42.89;101915.34;4918477;29;20220;-65
2024/01/23 10:46:34;;;;;;;12.73;3.37;;;;;;;20.33;37.49;101912.03;4920690;29;20212;-62
2024/01/23 10:49:03;;;;;;;11.87;3.43;;;;;;;20.02;37.01;101895.06;4920710;29;20666;-64
2024/01/23 10:51:32;;;;;;;13.23;2.90;;;;;;;18.21;38.43;101894.47;4923060;29;20238;-64
2024/01/23 10:54:08;;;;;;;14.40;3.53;;;;;;;17.77;40.21;101892.94;4919365;29;20221;-63
2024/01/23 10:56:43;;;;;;;11.00;3.13;;;;;;;21.00;36.26;101896.09;4922177;29;20703;-63
2024/01/23 10:59:17;;;;;;;11.60;2.87;;;;;;;23.68;32.00;101889.63;4923341;29;20240;-63
2024/01/23 11:01:52;;;;;;;10.47;3.10;;;;;;;23.11;32.23;101891.53;4919239;29;20319;-63
2024/01/23 11:04:20;;;;;;;13.30;3.58;;;;;;;21.71;33.57;101890.19;4917660;29;20216;-65
2024/01/23 11:06:53;;;;;;;11.45;3.42;;;;;;;20.40;34.59;101906.84;4921634;29;20560;-63
2024/01/23 11:09:26;;;;;;;11.30;3.60;;;;;;;19.00;37.29;101906.50;4919701;29;20534;-62
2024/01/23 11:12:05;;;;;;;13.85;4.05;;;;;;;18.20;38.53;101903.53;4920740;29;20315;-63
2024/01/23 11:14:47;;;;;;;13.07;3.70;;;;;;;17.35;39.98;101917.81;4919101;29;20208;-64
2024/01/23 11:17:17;;;;;;;13.65;3.72;;;;;;;16.89;41.24;101927.84;4919092;29;20267;-61
2024/01/23 11:19:47;;;;;;;12.77;3.47;;;;;;;16.47;41.93;101921.38;4920689;29;20758;-64
2024/01/23 11:22:22;;;;;;;13.87;3.20;;;;;;;16.52;41.75;101927.16;4922318;29;20200;-62
2024/01/23 11:24:51;;;;;;;13.20;3.37;;;;;;;16.76;41.63;101924.72;4919962;29;20290;-66
2024/01/23 11:27:21;;;;;;;17.13;3.60;;;;;;;17.19;40.78;101912.34;4919024;29;20287;-64
2024/01/23 11:29:50;;;;;;;13.33;3.50;;;;;;;18.00;39.60;101919.06;4922155;29;20279;-63
2024/01/23 11:32:23;;;;;;;14.60;3.23;;;;;;;18.65;38.50;101921.09;4917892;29;20256;-64
2024/01/23 11:35:02;;;;;;;11.07;3.00;;;;;;;19.25;37.70;101923.50;4920210;29;20708;-64
2024/01/23 11:37:45;;;;;;;12.07;2.90;;;;;;;20.23;36.40;101919.50;4919660;29;20212;-62
2024/01/23 11:44:19;;;;;;;9.98;3.17;;;;;;;20.95;34.54;101933.56;4918106;29;20235;-69
2024/01/23 11:47:07;;;;;;;9.25;2.88;;;;;;;21.13;34.17;101930.53;4914412;29;20212;-67
2024/01/23 11:49:56;;;;;;;13.70;3.50;;;;;;;20.87;34.86;101934.47;4916875;29;20208;-68
2024/01/23 12:06:23;;;;;;;12.03;3.10;;;;;;;16.15;43.73;101920.03;4844879;29;20237;-69
2024/01/23 12:23:26;;;;;;;11.77;2.43;;;;;;;14.85;46.56;101889.72;4854217;29;20221;-70
2024/01/23 12:25:56;;;;;;;10.20;2.67;;;;;;;14.16;48.15;101903.13;4852768;29;20328;-72
2024/01/23 12:32:51;;;;;;;11.43;3.10;;;;;;;12.93;52.22;101896.00;4839567;29;20816;-67
2024/01/23 12:39:43;;;;;;;11.53;2.70;;;;;;;12.05;56.13;101871.38;4863516;29;20228;-68
2024/01/23 12:50:53;;;;;;;10.97;2.83;;;;;;;11.41;59.25;101841.94;4817858;29;20734;-66
2024/01/23 12:53:31;;;;;;;14.03;2.87;;;;;;;11.31;60.58;101839.16;4844557;29;20242;-66
2024/01/23 13:04:09;;;;;;;14.50;2.67;;;;;;;11.02;63.00;101853.00;4888508;29;20730;-68
2024/01/23 13:34:07;;;;;;;9.70;2.30;;;;;;;10.70;65.92;101874.84;4700641;30;21384;-68
2024/01/23 13:44:51;;;;;;;19.03;2.53;;;;;;;10.61;65.11;101849.03;4781599;29;20226;-66
2024/01/23 14:11:24;;;;;;;19.07;3.80;;;;;;;10.55;67.46;101855.59;4689690;30;20239;-67
2024/01/23 14:21:07;;;;;;;19.63;4.27;;;;;;;10.54;67.66;101869.00;4786859;29;20998;-67
2024/01/23 14:31:41;;;;;;;19.83;4.43;;;;;;;10.52;67.76;101853.22;4863787;29;20233;-68
2024/01/23 14:34:41;;;;;;;19.57;3.73;;;;;;;10.51;67.93;101842.72;4856065;29;20287;-66
2024/01/23 14:38:06;;;;;;;17.60;3.87;;;;;;;10.48;67.95;101832.31;4921092;29;20337;-69
2024/01/23 14:41:33;;;;;;;23.73;4.00;;;;;;;10.52;67.88;101833.78;4868372;29;20424;-67
2024/01/23 14:47:59;;;;;;;14.73;3.50;;;;;;;10.48;67.99;101848.22;4816129;29;20282;-66
2024/01/23 14:54:59;;;;;;;19.93;3.60;;;;;;;10.44;67.93;101855.59;4850996;29;20332;-67
2024/01/23 15:12:42;;;;;;;20.77;4.80;;;;;;;10.26;68.86;101853.44;4720026;30;20225;-67
2024/01/23 15:25:57;;;;;;;25.23;4.33;;;;;;;10.18;68.88;101836.28;4846466;29;20241;-67
2024/01/23 15:36:09;;;;;;;21.60;4.43;;;;;;;10.23;68.85;101821.84;4835186;29;20217;-67
2024/01/23 15:42:47;;;;;;;20.57;3.30;;;;;;;10.35;68.61;101828.91;4894155;29;20240;-67
2024/01/23 15:49:36;;;;;;;21.57;3.90;;;;;;;10.28;68.43;101822.38;4859504;29;20854;-67
2024/01/23 15:52:19;;;;;;;19.70;3.50;;;;;;;10.28;68.34;101819.72;4869902;29;20228;-66
2024/01/23 15:55:21;;;;;;;23.47;4.13;;;;;;;10.24;68.63;101818.22;4916724;29;20233;-68
2024/01/23 15:58:43;;;;;;;19.00;3.47;;;;;;;10.28;68.88;101809.09;4907653;29;20225;-68
2024/01/23 16:01:21;;;;;;;18.77;3.40;;;;;;;10.17;69.00;101808.09;4892914;29;20278;-68
2024/01/23 17:07:15;;;;;;;18.97;4.37;;;;;;;9.70;74.65;101813.31;4761849;30;20234;-66
2024/01/23 17:44:47;;;;;;;24.37;4.03;;;;;;;9.06;81.09;101786.06;4740593;29;20817;-67
2024/01/23 19:27:18;;;;;;;16.23;3.40;;;;;;;8.27;90.67;101569.44;4704285;30;20224;-71
2024/01/23 19:49:13;;;;;;;20.73;3.80;;;;;;;8.22;92.31;101524.84;4680987;30;20349;-72
2024/01/23 20:34:29;;;;;;;;;;;;;;;;;;;;;
2024/01/23 20:41:08;;;;;;;20.40;4.60;;;;;;;8.52;88.81;101486.66;4758688;29;20228;-65
2024/01/23 20:43:37;;;;;;;16.37;3.83;;;;;;;8.63;87.44;101477.00;4851824;29;20306;-65
2024/01/23 20:46:05;;;;;;;17.63;2.80;;;;;;;8.71;87.48;101487.00;4866188;29;20615;-66
